Time;durP1;ratioP1;P1;durP2;ratioP2;P2;SDS_P1;SDS_P2;PMS_P1;PMS_P2;Temp;Humidity;BMP_temperature;BMP_pressure;BME280_temperature;BME280_humidity;BME280_pressure;Samples;Min_cycle;Max_cycle;Signal;HPM_P1;HPM_P2
2023/05/06 00:00:18;;;;;;;1.73;0.93;;;;;;;;;;5075357;28;20204;-45
2023/05/06 00:03:05;;;;;;;1.35;0.77;;;;;;;;;;5079588;28;20252;-45
2023/05/06 00:05:33;;;;;;;1.15;0.82;;;;;;;;;;5095729;28;20230;-46
2023/05/06 00:08:00;;;;;;;1.10;0.65;;;;;;;;;;5095622;28;20268;-46
2023/05/06 00:10:27;;;;;;;1.23;0.80;;;;;;;;;;5095849;28;20202;-46
2023/05/06 00:12:54;;;;;;;2.42;1.00;;;;;;;;;;5095764;28;20253;-44
2023/05/06 00:15:21;;;;;;;2.63;0.85;;;;;;;;;;5095387;28;20562;-46
2023/05/06 00:17:49;;;;;;;0.77;0.70;;;;;;;;;;5095577;28;20198;-45
2023/05/06 00:20:16;;;;;;;1.42;0.88;;;;;;;;;;5095322;28;20199;-46
2023/05/06 00:22:43;;;;;;;1.23;0.80;;;;;;;;;;5095146;28;20722;-45
2023/05/06 00:25:10;;;;;;;0.90;0.70;;;;;;;;;;5095520;28;20199;-47
2023/05/06 00:27:38;;;;;;;0.90;0.77;;;;;;;;;;5095445;28;20203;-45
2023/05/06 00:30:05;;;;;;;2.53;1.00;;;;;;;;;;5094573;28;20206;-46
2023/05/06 00:32:33;;;;;;;1.20;0.70;;;;;;;;;;5095186;28;20351;-46
2023/05/06 00:35:00;;;;;;;1.48;0.80;;;;;;;;;;5095247;28;20202;-45
2023/05/06 00:37:27;;;;;;;1.58;0.85;;;;;;;;;;5095022;28;20203;-46
2023/05/06 00:39:54;;;;;;;0.80;0.80;;;;;;;;;;5093944;28;20705;-47
2023/05/06 00:42:22;;;;;;;0.95;0.70;;;;;;;;;;5093636;28;20756;-46
2023/05/06 00:44:49;;;;;;;1.00;0.77;;;;;;;;;;5094813;28;20233;-45
2023/05/06 00:47:17;;;;;;;1.92;0.93;;;;;;;;;;5093777;28;20206;-46
2023/05/06 00:49:48;;;;;;;1.65;1.00;;;;;;;;;;5094986;28;20558;-46
2023/05/06 00:52:17;;;;;;;1.02;0.93;;;;;;;;;;5093972;28;20195;-45
2023/05/06 00:54:44;;;;;;;0.98;0.80;;;;;;;;;;5109791;28;20202;-46
2023/05/06 00:57:11;;;;;;;1.17;0.80;;;;;;;;;;5093402;28;20663;-46
2023/05/06 00:59:39;;;;;;;0.65;0.65;;;;;;;;;;5076835;28;20294;-46
2023/05/06 01:02:06;;;;;;;0.93;0.73;;;;;;;;;;5094460;28;20223;-45
2023/05/06 01:04:34;;;;;;;0.90;0.82;;;;;;;;;;5094376;28;20206;-45
2023/05/06 01:07:39;;;;;;;0.63;0.63;;;;;;;;;;5093087;28;20215;-47
2023/05/06 01:10:19;;;;;;;1.02;0.90;;;;;;;;;;5094680;28;20203;-46
2023/05/06 01:12:53;;;;;;;0.90;0.80;;;;;;;;;;5094856;28;20202;-45
2023/05/06 01:15:29;;;;;;;1.00;0.80;;;;;;;;;;5094702;28;20190;-45
2023/05/06 01:17:58;;;;;;;2.65;1.17;;;;;;;;;;5094612;28;20236;-45
2023/05/06 01:20:26;;;;;;;1.83;0.90;;;;;;;;;;5092944;28;20711;-46
2023/05/06 01:22:53;;;;;;;1.55;1.00;;;;;;;;;;5093009;28;20226;-45
2023/05/06 01:25:21;;;;;;;2.58;0.93;;;;;;;;;;5094401;28;20201;-46
2023/05/06 01:27:49;;;;;;;4.18;0.90;;;;;;;;;;5094316;28;20210;-46
2023/05/06 01:30:17;;;;;;;0.95;0.90;;;;;;;;;;5094143;28;20203;-46
2023/05/06 01:32:55;;;;;;;1.40;1.00;;;;;;;;;;5076230;28;20202;-46
2023/05/06 01:35:42;;;;;;;1.20;0.98;;;;;;;;;;5094138;28;20202;-47
2023/05/06 01:38:34;;;;;;;3.72;1.25;;;;;;;;;;5076109;28;20694;-46
2023/05/06 01:41:02;;;;;;;1.63;1.15;;;;;;;;;;5092539;28;20246;-45
2023/05/06 01:43:35;;;;;;;1.35;0.93;;;;;;;;;;5093145;28;20207;-45
2023/05/06 01:46:02;;;;;;;1.65;1.05;;;;;;;;;;5075941;28;20199;-47
2023/05/06 01:48:31;;;;;;;1.45;1.00;;;;;;;;;;5092864;28;20206;-46
2023/05/06 01:50:58;;;;;;;1.88;0.98;;;;;;;;;;5076022;28;20210;-45
2023/05/06 01:53:25;;;;;;;0.90;0.90;;;;;;;;;;5075940;28;20248;-46
2023/05/06 01:55:53;;;;;;;1.63;1.00;;;;;;;;;;5092710;28;20201;-46
2023/05/06 01:58:20;;;;;;;1.25;0.88;;;;;;;;;;5092490;28;20210;-45
2023/05/06 02:00:47;;;;;;;1.00;0.90;;;;;;;;;;5093798;28;20207;-45
2023/05/06 02:03:15;;;;;;;1.52;1.10;;;;;;;;;;5093534;28;20203;-45
2023/05/06 02:05:42;;;;;;;2.50;1.33;;;;;;;;;;5092965;28;20320;-46
2023/05/06 02:08:10;;;;;;;2.75;1.27;;;;;;;;;;5092434;28;20195;-45
2023/05/06 02:10:37;;;;;;;1.40;0.85;;;;;;;;;;5092512;28;20202;-47
2023/05/06 02:13:08;;;;;;;1.55;1.13;;;;;;;;;;5092561;28;20228;-46
2023/05/06 02:15:35;;;;;;;2.58;1.38;;;;;;;;;;5092072;28;20651;-45
2023/05/06 02:18:04;;;;;;;1.67;1.00;;;;;;;;;;5093516;28;20210;-45
2023/05/06 02:20:31;;;;;;;7.30;1.10;;;;;;;;;;5096895;28;20213;-44
2023/05/06 02:22:59;;;;;;;1.45;0.98;;;;;;;;;;5096017;28;20233;-45
2023/05/06 02:25:26;;;;;;;1.08;0.80;;;;;;;;;;5097337;28;20198;-47
2023/05/06 02:27:53;;;;;;;1.40;0.95;;;;;;;;;;5096287;28;20214;-45
2023/05/06 02:30:20;;;;;;;2.60;1.23;;;;;;;;;;5097415;28;20198;-44
2023/05/06 02:32:47;;;;;;;1.75;1.05;;;;;;;;;;5096134;28;20214;-45
2023/05/06 02:35:14;;;;;;;0.80;0.80;;;;;;;;;;5097127;28;20651;-47
2023/05/06 02:37:42;;;;;;;1.10;0.90;;;;;;;;;;5097080;28;20217;-45
2023/05/06 02:40:09;;;;;;;2.35;1.23;;;;;;;;;;5096818;28;20235;-46
2023/05/06 02:42:37;;;;;;;1.40;0.90;;;;;;;;;;5096867;28;20562;-46
2023/05/06 02:45:05;;;;;;;1.13;1.02;;;;;;;;;;5097238;28;20209;-46
2023/05/06 02:47:32;;;;;;;1.05;0.90;;;;;;;;;;5097021;28;20206;-46
2023/05/06 02:49:59;;;;;;;1.13;0.90;;;;;;;;;;5095773;28;20298;-45
2023/05/06 02:52:26;;;;;;;1.17;1.00;;;;;;;;;;5095552;28;20210;-46
2023/05/06 02:54:53;;;;;;;1.10;0.98;;;;;;;;;;5096994;28;20206;-46
2023/05/06 02:57:20;;;;;;;1.30;1.08;;;;;;;;;;5095714;28;20206;-45
2023/05/06 02:59:47;;;;;;;1.50;1.23;;;;;;;;;;5096823;28;20614;-47
2023/05/06 03:02:14;;;;;;;1.75;1.20;;;;;;;;;;5096868;28;20246;-46
2023/05/06 03:04:41;;;;;;;1.30;1.08;;;;;;;;;;5095321;28;20202;-46
2023/05/06 03:07:09;;;;;;;1.50;1.17;;;;;;;;;;5096505;28;20206;-45
2023/05/06 03:09:36;;;;;;;1.20;1.10;;;;;;;;;;5095448;28;20198;-46
2023/05/06 03:12:03;;;;;;;1.63;1.00;;;;;;;;;;5096675;28;20217;-45
2023/05/06 03:14:31;;;;;;;2.65;1.10;;;;;;;;;;5095121;28;20552;-48
2023/05/06 03:16:59;;;;;;;1.58;1.42;;;;;;;;;;5095140;28;20211;-45
2023/05/06 03:19:26;;;;;;;0.98;0.88;;;;;;;;;;5095398;28;20207;-46
2023/05/06 03:21:53;;;;;;;1.90;0.98;;;;;;;;;;5095046;28;20230;-45
2023/05/06 03:24:21;;;;;;;1.55;1.10;;;;;;;;;;5095771;28;20199;-46
2023/05/06 03:26:48;;;;;;;1.98;1.15;;;;;;;;;;5095448;28;20260;-45
2023/05/06 03:29:15;;;;;;;1.10;1.00;;;;;;;;;;5095324;28;20199;-45
2023/05/06 03:31:44;;;;;;;1.20;0.90;;;;;;;;;;5095249;28;20275;-45
2023/05/06 03:34:11;;;;;;;1.08;0.73;;;;;;;;;;5095129;28;20558;-45
2023/05/06 03:36:39;;;;;;;1.25;1.00;;;;;;;;;;5094966;28;20280;-46
2023/05/06 03:39:06;;;;;;;1.35;1.05;;;;;;;;;;5095488;28;20195;-45
2023/05/06 03:41:36;;;;;;;2.97;1.10;;;;;;;;;;5096420;28;20245;-45
2023/05/06 03:44:03;;;;;;;0.80;0.80;;;;;;;;;;5078303;28;20207;-45
2023/05/06 03:46:31;;;;;;;1.50;1.02;;;;;;;;;;5095181;28;20229;-45
2023/05/06 03:48:59;;;;;;;1.80;0.98;;;;;;;;;;5095001;28;20199;-45
2023/05/06 03:51:27;;;;;;;0.80;0.77;;;;;;;;;;5095204;28;20252;-46
2023/05/06 03:53:55;;;;;;;1.92;1.10;;;;;;;;;;5096112;28;20203;-48
2023/05/06 03:56:23;;;;;;;1.83;1.10;;;;;;;;;;5078371;28;20202;-45
2023/05/06 03:58:53;;;;;;;2.45;1.20;;;;;;;;;;5094725;28;20203;-46
2023/05/06 04:01:23;;;;;;;2.10;1.40;;;;;;;;;;5094492;28;20218;-46
2023/05/06 04:03:51;;;;;;;1.77;1.15;;;;;;;;;;5095805;28;20563;-46
2023/05/06 04:06:18;;;;;;;2.50;1.23;;;;;;;;;;5096080;28;20199;-45
2023/05/06 04:08:46;;;;;;;1.50;1.10;;;;;;;;;;5095767;28;20199;-45
2023/05/06 04:11:14;;;;;;;1.00;0.90;;;;;;;;;;5094915;28;20207;-45
2023/05/06 04:13:41;;;;;;;1.45;0.90;;;;;;;;;;5094489;28;20202;-46
2023/05/06 04:16:13;;;;;;;1.17;1.00;;;;;;;;;;5094309;28;20202;-46
2023/05/06 04:18:43;;;;;;;2.17;1.10;;;;;;;;;;5094404;28;20267;-47
2023/05/06 04:21:13;;;;;;;1.48;1.10;;;;;;;;;;5094428;28;20285;-45
2023/05/06 04:23:45;;;;;;;1.20;1.10;;;;;;;;;;5052985;28;20227;-46
2023/05/06 04:26:17;;;;;;;1.60;1.13;;;;;;;;;;5036360;28;20207;-49
2023/05/06 04:28:45;;;;;;;1.67;0.90;;;;;;;;;;5036159;28;20673;-46
2023/05/06 04:31:14;;;;;;;0.85;0.77;;;;;;;;;;5068795;28;20204;-46
2023/05/06 04:33:44;;;;;;;1.58;1.00;;;;;;;;;;5036097;28;20657;-46
2023/05/06 04:36:16;;;;;;;0.80;0.80;;;;;;;;;;5032615;28;20205;-46
2023/05/06 04:38:52;;;;;;;1.00;0.90;;;;;;;;;;5034233;28;20199;-46
2023/05/06 04:41:21;;;;;;;1.23;1.00;;;;;;;;;;5061801;28;20246;-46
2023/05/06 04:43:48;;;;;;;0.98;0.88;;;;;;;;;;5031442;28;20234;-48
2023/05/06 04:46:22;;;;;;;1.15;0.93;;;;;;;;;;5034642;28;20204;-46
2023/05/06 04:48:51;;;;;;;0.95;0.88;;;;;;;;;;5051017;28;20219;-46
2023/05/06 04:51:19;;;;;;;1.10;0.80;;;;;;;;;;5067519;28;20200;-46
2023/05/06 04:53:46;;;;;;;1.40;0.80;;;;;;;;;;5050959;28;20548;-47
2023/05/06 04:56:14;;;;;;;1.02;0.80;;;;;;;;;;5060276;28;20204;-46
2023/05/06 04:58:41;;;;;;;1.08;0.80;;;;;;;;;;5024641;28;20204;-46
2023/05/06 05:01:10;;;;;;;1.38;1.10;;;;;;;;;;5073227;28;20207;-47
2023/05/06 05:03:37;;;;;;;0.85;0.80;;;;;;;;;;5076913;28;20219;-46
2023/05/06 05:06:05;;;;;;;1.20;0.93;;;;;;;;;;5086648;28;20708;-47
2023/05/06 05:08:32;;;;;;;0.95;0.85;;;;;;;;;;5091918;28;20207;-46
2023/05/06 05:11:00;;;;;;;0.80;0.75;;;;;;;;;;5082629;28;20569;-46
2023/05/06 05:13:29;;;;;;;2.63;0.85;;;;;;;;;;5085380;28;20560;-47
2023/05/06 05:15:57;;;;;;;0.57;0.52;;;;;;;;;;5086478;28;20592;-48
2023/05/06 05:18:28;;;;;;;1.05;0.77;;;;;;;;;;5082964;28;20203;-47
2023/05/06 05:21:01;;;;;;;1.05;0.70;;;;;;;;;;5092504;28;20234;-48
2023/05/06 05:23:28;;;;;;;1.48;0.90;;;;;;;;;;5092246;28;20235;-48
2023/05/06 05:25:55;;;;;;;1.33;1.00;;;;;;;;;;5092217;28;20214;-47
2023/05/06 05:28:23;;;;;;;1.65;0.95;;;;;;;;;;5084653;28;20218;-47
2023/05/06 05:30:51;;;;;;;0.70;0.70;;;;;;;;;;5084352;28;20217;-47
2023/05/06 05:33:19;;;;;;;2.15;0.70;;;;;;;;;;5080377;28;20219;-47
2023/05/06 05:35:46;;;;;;;0.80;0.70;;;;;;;;;;5091348;28;20218;-47
2023/05/06 05:38:14;;;;;;;3.20;1.00;;;;;;;;;;5090567;28;20215;-47
2023/05/06 05:40:43;;;;;;;0.70;0.70;;;;;;;;;;5090448;28;20618;-51
2023/05/06 05:43:10;;;;;;;1.23;0.88;;;;;;;;;;5088701;28;20713;-49
2023/05/06 05:45:40;;;;;;;1.05;0.73;;;;;;;;;;5089126;28;20254;-48
2023/05/06 05:48:09;;;;;;;0.95;0.80;;;;;;;;;;5083930;28;20211;-48
2023/05/06 05:50:37;;;;;;;0.95;0.75;;;;;;;;;;5086241;28;20241;-49
2023/05/06 05:53:04;;;;;;;1.15;0.77;;;;;;;;;;5088700;28;20214;-48
2023/05/06 05:55:35;;;;;;;0.70;0.70;;;;;;;;;;5088500;28;20214;-49
2023/05/06 05:58:02;;;;;;;0.70;0.70;;;;;;;;;;5087218;28;20710;-48
2023/05/06 06:00:31;;;;;;;1.35;0.80;;;;;;;;;;5089308;28;20235;-49
2023/05/06 06:03:05;;;;;;;0.85;0.77;;;;;;;;;;5076221;28;20271;-49
2023/05/06 06:05:33;;;;;;;1.38;0.93;;;;;;;;;;5088440;28;20703;-49
2023/05/06 06:08:00;;;;;;;0.55;0.52;;;;;;;;;;5089440;28;20231;-48
2023/05/06 06:10:31;;;;;;;2.83;2.03;;;;;;;;;;5087814;28;20288;-50
2023/05/06 06:13:01;;;;;;;0.88;0.77;;;;;;;;;;5090398;28;20227;-48
2023/05/06 06:15:31;;;;;;;0.82;0.80;;;;;;;;;;5089024;28;20237;-49
2023/05/06 06:17:58;;;;;;;1.17;0.80;;;;;;;;;;5090619;28;20229;-48
2023/05/06 06:20:27;;;;;;;0.68;0.68;;;;;;;;;;5073276;28;20219;-49
2023/05/06 06:22:55;;;;;;;0.75;0.65;;;;;;;;;;5089683;28;20226;-49
2023/05/06 06:25:22;;;;;;;0.70;0.70;;;;;;;;;;5086946;27;20218;-49
2023/05/06 06:27:49;;;;;;;1.35;0.80;;;;;;;;;;5090537;28;20223;-49
2023/05/06 06:30:17;;;;;;;1.08;0.80;;;;;;;;;;5091677;28;20714;-50
2023/05/06 06:32:48;;;;;;;1.20;0.82;;;;;;;;;;5089805;28;20227;-49
2023/05/06 06:35:16;;;;;;;1.83;1.00;;;;;;;;;;5091026;28;20215;-50
2023/05/06 06:37:43;;;;;;;1.00;0.63;;;;;;;;;;5090639;28;20749;-48
2023/05/06 06:40:11;;;;;;;1.85;0.75;;;;;;;;;;5089095;28;20245;-50
2023/05/06 06:42:38;;;;;;;1.02;0.80;;;;;;;;;;5087163;28;20239;-50
2023/05/06 06:45:17;;;;;;;1.05;0.75;;;;;;;;;;5088470;28;20705;-50
2023/05/06 06:47:45;;;;;;;0.88;0.75;;;;;;;;;;5089243;28;20321;-49
2023/05/06 06:50:12;;;;;;;1.20;0.80;;;;;;;;;;5090967;28;20222;-51
2023/05/06 06:52:39;;;;;;;0.77;0.57;;;;;;;;;;5092076;28;20248;-52
2023/05/06 06:55:07;;;;;;;1.98;0.93;;;;;;;;;;5092686;28;20215;-50
2023/05/06 06:57:36;;;;;;;1.02;0.70;;;;;;;;;;5091660;28;20235;-52
2023/05/06 07:00:04;;;;;;;1.10;0.80;;;;;;;;;;5085356;28;20219;-49
2023/05/06 07:02:30;;;;;;;1.48;0.63;;;;;;;;;;5089257;28;20301;-51
2023/05/06 07:04:58;;;;;;;0.60;0.60;;;;;;;;;;5091161;28;20236;-51
2023/05/06 07:07:25;;;;;;;0.40;0.40;;;;;;;;;;5089299;28;20234;-48
2023/05/06 07:09:52;;;;;;;0.60;0.60;;;;;;;;;;5095615;28;20283;-49
2023/05/06 07:12:19;;;;;;;1.60;0.88;;;;;;;;;;5095192;27;20280;-49
2023/05/06 07:14:46;;;;;;;1.20;0.85;;;;;;;;;;5089438;28;20219;-48
2023/05/06 07:17:13;;;;;;;1.08;0.73;;;;;;;;;;5094648;28;20237;-49
2023/05/06 07:19:41;;;;;;;1.58;0.68;;;;;;;;;;5090606;28;20215;-49
2023/05/06 07:22:08;;;;;;;1.73;1.10;;;;;;;;;;5085271;28;20231;-47
2023/05/06 07:24:35;;;;;;;1.55;0.43;;;;;;;;;;5083290;28;20239;-49
2023/05/06 07:27:03;;;;;;;1.08;0.82;;;;;;;;;;5091097;28;20222;-50
2023/05/06 07:29:30;;;;;;;0.85;0.65;;;;;;;;;;5094904;28;20214;-49
2023/05/06 07:31:57;;;;;;;1.00;0.80;;;;;;;;;;5095250;28;20692;-49
2023/05/06 07:34:24;;;;;;;1.08;0.68;;;;;;;;;;5093277;28;20218;-49
2023/05/06 07:36:52;;;;;;;2.65;1.00;;;;;;;;;;5089990;28;20243;-51
2023/05/06 07:39:19;;;;;;;0.85;0.85;;;;;;;;;;5094390;28;20215;-47
2023/05/06 07:41:46;;;;;;;0.52;0.50;;;;;;;;;;5093625;28;20250;-47
2023/05/06 07:44:13;;;;;;;0.73;0.70;;;;;;;;;;5093218;28;20585;-50
2023/05/06 07:46:40;;;;;;;1.70;0.70;;;;;;;;;;5093776;28;20223;-47
2023/05/06 07:49:08;;;;;;;1.45;0.90;;;;;;;;;;5091952;28;20657;-49
2023/05/06 07:51:35;;;;;;;0.63;0.60;;;;;;;;;;5092100;28;20218;-47
2023/05/06 07:54:03;;;;;;;2.08;0.95;;;;;;;;;;5094177;28;20522;-46
2023/05/06 07:56:30;;;;;;;0.63;0.60;;;;;;;;;;5093276;28;20229;-51
2023/05/06 07:58:58;;;;;;;0.93;0.82;;;;;;;;;;5093073;28;20300;-46
2023/05/06 08:01:27;;;;;;;0.60;0.50;;;;;;;;;;5093038;28;20717;-48
2023/05/06 08:03:55;;;;;;;1.90;0.75;;;;;;;;;;5085979;28;20231;-47
2023/05/06 08:06:23;;;;;;;2.30;0.63;;;;;;;;;;5078412;28;20219;-47
2023/05/06 08:08:50;;;;;;;0.98;0.63;;;;;;;;;;5092187;28;20231;-48
2023/05/06 08:11:17;;;;;;;0.70;0.65;;;;;;;;;;5093359;28;20225;-48
2023/05/06 08:13:46;;;;;;;0.73;0.70;;;;;;;;;;5092053;28;20226;-48
2023/05/06 08:16:13;;;;;;;0.43;0.43;;;;;;;;;;5091423;28;20711;-48
2023/05/06 08:18:40;;;;;;;1.23;0.80;;;;;;;;;;5091835;28;20753;-47
2023/05/06 08:21:07;;;;;;;2.83;0.73;;;;;;;;;;5085029;28;20225;-47
2023/05/06 08:23:35;;;;;;;1.50;0.70;;;;;;;;;;5077481;28;20264;-48
2023/05/06 08:26:02;;;;;;;0.80;0.80;;;;;;;;;;5071526;28;20219;-45
2023/05/06 08:28:30;;;;;;;1.38;0.80;;;;;;;;;;5080434;28;20624;-48
2023/05/06 08:30:57;;;;;;;0.73;0.70;;;;;;;;;;5073799;28;20226;-46
2023/05/06 08:33:24;;;;;;;1.33;0.63;;;;;;;;;;5079228;28;20231;-48
2023/05/06 08:35:51;;;;;;;2.10;0.95;;;;;;;;;;5079268;28;20231;-46
2023/05/06 08:38:18;;;;;;;0.57;0.57;;;;;;;;;;5070406;28;20227;-47
2023/05/06 08:40:47;;;;;;;0.82;0.68;;;;;;;;;;5077652;28;20330;-49
2023/05/06 08:43:17;;;;;;;1.05;0.70;;;;;;;;;;5088576;28;20588;-48
2023/05/06 08:45:44;;;;;;;0.75;0.75;;;;;;;;;;5085027;28;20223;-47
2023/05/06 08:48:11;;;;;;;1.33;0.70;;;;;;;;;;5078353;28;20215;-46
2023/05/06 08:50:41;;;;;;;0.95;0.93;;;;;;;;;;5082924;28;20206;-47
2023/05/06 08:53:12;;;;;;;0.60;0.60;;;;;;;;;;5085065;28;20244;-49
2023/05/06 08:55:40;;;;;;;0.70;0.60;;;;;;;;;;5085554;28;20683;-47
2023/05/06 08:58:09;;;;;;;1.13;0.80;;;;;;;;;;5078321;28;20224;-49
2023/05/06 09:00:37;;;;;;;0.90;0.70;;;;;;;;;;5081898;28;20223;-45
2023/05/06 09:03:04;;;;;;;1.17;0.80;;;;;;;;;;5082161;28;20265;-44
2023/05/06 09:05:32;;;;;;;0.68;0.68;;;;;;;;;;5086458;28;20280;-45
2023/05/06 09:07:59;;;;;;;3.53;0.80;;;;;;;;;;5082113;28;20276;-45
2023/05/06 09:10:31;;;;;;;0.90;0.70;;;;;;;;;;5093080;28;20218;-46
2023/05/06 09:12:58;;;;;;;1.77;1.00;;;;;;;;;;5084141;28;20226;-46
2023/05/06 09:15:26;;;;;;;0.77;0.60;;;;;;;;;;5081836;28;20218;-47
2023/05/06 09:17:54;;;;;;;1.00;0.73;;;;;;;;;;5082652;28;20223;-46
2023/05/06 09:20:21;;;;;;;0.60;0.60;;;;;;;;;;5086012;28;20222;-47
2023/05/06 09:22:48;;;;;;;1.30;0.70;;;;;;;;;;5093215;28;20755;-45
2023/05/06 09:25:16;;;;;;;1.17;0.80;;;;;;;;;;5092673;28;20706;-44
2023/05/06 09:27:43;;;;;;;1.20;0.85;;;;;;;;;;5087204;28;20715;-47
2023/05/06 09:30:11;;;;;;;1.00;0.60;;;;;;;;;;5084335;28;21739;-47
2023/05/06 09:32:38;;;;;;;0.93;0.63;;;;;;;;;;5092383;28;20218;-46
2023/05/06 09:35:08;;;;;;;1.42;0.80;;;;;;;;;;5090942;28;20224;-47
2023/05/06 09:37:35;;;;;;;1.08;0.57;;;;;;;;;;5079130;28;20257;-51
2023/05/06 09:40:03;;;;;;;0.88;0.55;;;;;;;;;;5082617;28;20234;-48
2023/05/06 09:42:30;;;;;;;0.60;0.60;;;;;;;;;;5072752;28;20234;-48
2023/05/06 09:44:59;;;;;;;1.05;0.60;;;;;;;;;;5070801;28;20239;-48
2023/05/06 09:47:33;;;;;;;0.68;0.60;;;;;;;;;;5092259;28;20218;-48
2023/05/06 09:50:02;;;;;;;1.23;0.80;;;;;;;;;;5089106;28;20225;-49
2023/05/06 09:52:30;;;;;;;0.85;0.65;;;;;;;;;;5083660;28;20218;-49
2023/05/06 09:54:58;;;;;;;0.85;0.68;;;;;;;;;;5089566;28;20214;-47
2023/05/06 09:57:25;;;;;;;0.57;0.57;;;;;;;;;;5080324;28;20326;-48
2023/05/06 09:59:54;;;;;;;0.68;0.50;;;;;;;;;;5084494;28;20282;-48
2023/05/06 10:02:22;;;;;;;0.57;0.50;;;;;;;;;;5090345;28;20218;-50
2023/05/06 10:04:52;;;;;;;0.88;0.80;;;;;;;;;;5089918;28;20246;-48
2023/05/06 10:07:22;;;;;;;0.98;0.60;;;;;;;;;;5089824;28;20225;-50
2023/05/06 10:09:52;;;;;;;0.60;0.60;;;;;;;;;;5087350;28;20244;-49
2023/05/06 10:12:19;;;;;;;0.88;0.68;;;;;;;;;;5079819;28;20236;-48
2023/05/06 10:14:47;;;;;;;0.73;0.65;;;;;;;;;;5089433;28;20214;-48
2023/05/06 10:17:15;;;;;;;0.93;0.70;;;;;;;;;;5091154;28;20233;-48
2023/05/06 10:19:44;;;;;;;2.72;0.80;;;;;;;;;;5091663;28;20276;-48
2023/05/06 10:22:20;;;;;;;0.68;0.60;;;;;;;;;;5090078;28;20321;-46
2023/05/06 10:24:55;;;;;;;3.92;0.70;;;;;;;;;;5088539;28;20294;-54
2023/05/06 10:27:23;;;;;;;0.98;0.70;;;;;;;;;;5091485;28;20230;-51
2023/05/06 10:29:58;;;;;;;3.92;0.70;;;;;;;;;;5078727;28;20249;-56
2023/05/06 10:32:28;;;;;;;0.50;0.50;;;;;;;;;;5091602;28;20219;-56
2023/05/06 10:35:03;;;;;;;1.35;0.70;;;;;;;;;;5090895;28;20318;-54
2023/05/06 10:37:31;;;;;;;0.93;0.70;;;;;;;;;;5091070;28;20234;-56
2023/05/06 10:39:58;;;;;;;1.20;0.70;;;;;;;;;;5094759;28;20734;-56
2023/05/06 10:42:29;;;;;;;1.10;0.90;;;;;;;;;;5095228;28;20238;-54
2023/05/06 10:45:04;;;;;;;1.38;0.77;;;;;;;;;;5095640;28;20597;-55
2023/05/06 10:47:56;;;;;;;0.55;0.50;;;;;;;;;;5093204;28;20215;-56
2023/05/06 10:50:25;;;;;;;1.58;0.77;;;;;;;;;;5085260;28;20597;-51
2023/05/06 10:52:57;;;;;;;1.10;0.70;;;;;;;;;;5095454;28;20227;-50
2023/05/06 10:55:31;;;;;;;1.13;0.80;;;;;;;;;;5094187;28;20215;-50
2023/05/06 10:58:17;;;;;;;1.63;0.65;;;;;;;;;;5095176;28;20667;-50
2023/05/06 11:00:53;;;;;;;0.80;0.60;;;;;;;;;;5095322;28;20241;-51
2023/05/06 11:03:22;;;;;;;0.85;0.70;;;;;;;;;;5093745;28;20713;-54
2023/05/06 11:05:51;;;;;;;0.70;0.60;;;;;;;;;;5094459;28;20230;-49
2023/05/06 11:08:23;;;;;;;0.75;0.60;;;;;;;;;;5094863;27;20249;-57
2023/05/06 11:10:54;;;;;;;2.50;0.57;;;;;;;;;;5095283;28;20210;-57
2023/05/06 11:13:27;;;;;;;1.40;0.85;;;;;;;;;;5094554;28;20726;-58
2023/05/06 11:15:56;;;;;;;0.80;0.70;;;;;;;;;;5094034;28;20589;-57
2023/05/06 11:18:24;;;;;;;0.60;0.60;;;;;;;;;;5075466;28;20223;-58
2023/05/06 11:21:03;;;;;;;1.10;0.73;;;;;;;;;;5074752;28;20219;-56
2023/05/06 11:23:40;;;;;;;0.75;0.55;;;;;;;;;;5083047;28;20710;-52
2023/05/06 11:26:09;;;;;;;0.70;0.60;;;;;;;;;;5086738;28;20572;-53
2023/05/06 11:28:36;;;;;;;1.02;0.70;;;;;;;;;;5087422;28;20227;-57
2023/05/06 11:31:04;;;;;;;3.30;0.77;;;;;;;;;;5089320;28;20222;-50
2023/05/06 11:33:32;;;;;;;1.00;0.68;;;;;;;;;;5094925;28;20230;-52
2023/05/06 11:36:00;;;;;;;0.60;0.60;;;;;;;;;;5095555;28;20699;-55
2023/05/06 11:38:46;;;;;;;0.63;0.63;;;;;;;;;;5094790;28;20229;-51
2023/05/06 11:41:15;;;;;;;1.38;0.65;;;;;;;;;;5092720;28;20230;-50
2023/05/06 11:43:51;;;;;;;1.63;0.63;;;;;;;;;;5093715;28;20222;-53
2023/05/06 11:46:20;;;;;;;0.95;0.50;;;;;;;;;;5094325;28;20218;-52
2023/05/06 11:48:47;;;;;;;1.85;0.93;;;;;;;;;;5095132;28;20569;-53
2023/05/06 11:51:15;;;;;;;0.75;0.70;;;;;;;;;;5092769;28;20223;-51
2023/05/06 11:53:42;;;;;;;2.88;0.80;;;;;;;;;;5080907;27;20219;-58
2023/05/06 11:56:09;;;;;;;1.48;0.63;;;;;;;;;;5093758;28;20565;-56
2023/05/06 11:58:36;;;;;;;0.52;0.52;;;;;;;;;;5090105;28;20322;-57
2023/05/06 12:01:03;;;;;;;0.85;0.60;;;;;;;;;;5094002;28;20764;-58
2023/05/06 12:03:31;;;;;;;1.15;0.88;;;;;;;;;;5091446;28;20223;-58
2023/05/06 12:06:00;;;;;;;0.88;0.63;;;;;;;;;;5085049;28;20242;-56
2023/05/06 12:08:34;;;;;;;1.67;0.70;;;;;;;;;;5094148;28;20215;-56
2023/05/06 12:11:07;;;;;;;1.17;0.82;;;;;;;;;;5094683;27;20222;-58
2023/05/06 12:13:35;;;;;;;1.50;1.00;;;;;;;;;;5094508;28;20219;-56
2023/05/06 12:16:04;;;;;;;0.75;0.63;;;;;;;;;;5094488;28;20692;-55
2023/05/06 12:18:31;;;;;;;1.15;0.80;;;;;;;;;;5093611;28;20249;-57
2023/05/06 12:21:02;;;;;;;1.15;0.70;;;;;;;;;;5093372;28;20223;-58
2023/05/06 12:23:29;;;;;;;1.58;0.90;;;;;;;;;;5093067;28;20218;-58
2023/05/06 12:26:05;;;;;;;2.13;0.70;;;;;;;;;;5094370;28;20309;-57
2023/05/06 12:28:35;;;;;;;1.70;1.08;;;;;;;;;;5093078;28;20275;-57
2023/05/06 12:31:21;;;;;;;0.60;0.60;;;;;;;;;;5091863;27;20230;-58
2023/05/06 12:33:49;;;;;;;1.10;0.63;;;;;;;;;;5074702;28;20279;-58
2023/05/06 12:36:17;;;;;;;1.27;0.85;;;;;;;;;;5094609;28;20229;-59
2023/05/06 12:39:00;;;;;;;1.30;0.80;;;;;;;;;;5094317;28;20226;-60
2023/05/06 12:41:42;;;;;;;1.38;0.52;;;;;;;;;;5093567;28;20233;-60
2023/05/06 12:44:38;;;;;;;1.33;0.88;;;;;;;;;;5091345;28;20258;-59
2023/05/06 12:47:18;;;;;;;0.88;0.68;;;;;;;;;;5091541;28;20230;-59
2023/05/06 12:49:57;;;;;;;0.70;0.70;;;;;;;;;;5092017;28;20227;-67
2023/05/06 12:52:28;;;;;;;1.00;0.60;;;;;;;;;;5093064;28;20226;-67
2023/05/06 12:54:55;;;;;;;1.75;1.10;;;;;;;;;;5094356;28;20249;-68
2023/05/06 12:57:23;;;;;;;1.30;1.00;;;;;;;;;;5092387;28;20259;-66
2023/05/06 12:59:50;;;;;;;1.08;0.85;;;;;;;;;;5093440;28;20222;-68
2023/05/06 13:02:17;;;;;;;1.05;0.80;;;;;;;;;;5093540;28;20622;-67
2023/05/06 13:04:45;;;;;;;1.10;0.95;;;;;;;;;;5093078;28;20237;-64
2023/05/06 13:07:13;;;;;;;1.20;0.80;;;;;;;;;;5093780;28;20219;-66
2023/05/06 13:09:40;;;;;;;1.25;0.60;;;;;;;;;;5093641;28;20260;-71
2023/05/06 13:12:07;;;;;;;1.40;0.73;;;;;;;;;;5093735;28;20276;-65
2023/05/06 13:14:34;;;;;;;0.60;0.60;;;;;;;;;;5092884;28;20223;-65
2023/05/06 13:17:06;;;;;;;0.98;0.90;;;;;;;;;;5093613;28;20741;-67
2023/05/06 13:19:34;;;;;;;1.75;1.00;;;;;;;;;;5093599;28;20254;-62
2023/05/06 13:22:01;;;;;;;1.55;0.82;;;;;;;;;;5093061;28;20608;-65
2023/05/06 13:24:28;;;;;;;0.88;0.75;;;;;;;;;;5093006;28;20231;-61
2023/05/06 13:26:58;;;;;;;1.02;0.82;;;;;;;;;;5092996;28;20710;-66
2023/05/06 13:29:25;;;;;;;1.83;1.00;;;;;;;;;;5093076;28;20226;-72
2023/05/06 13:31:53;;;;;;;1.52;0.80;;;;;;;;;;5089952;28;20230;-67
2023/05/06 13:34:20;;;;;;;1.83;1.10;;;;;;;;;;5083617;28;20216;-66
2023/05/06 13:36:48;;;;;;;4.70;1.30;;;;;;;;;;5087066;28;20234;-64
2023/05/06 13:39:15;;;;;;;2.58;1.10;;;;;;;;;;5072801;28;20305;-68
2023/05/06 13:41:45;;;;;;;1.35;0.63;;;;;;;;;;5072726;28;20235;-67
2023/05/06 13:44:12;;;;;;;1.10;0.88;;;;;;;;;;5091951;28;20215;-64
2023/05/06 13:46:40;;;;;;;2.17;1.27;;;;;;;;;;5092244;28;20568;-69
2023/05/06 13:49:10;;;;;;;1.23;0.93;;;;;;;;;;5084531;28;20703;-66
2023/05/06 13:51:37;;;;;;;1.13;0.85;;;;;;;;;;5078946;28;20264;-66
2023/05/06 13:54:05;;;;;;;2.00;1.50;;;;;;;;;;5090273;28;20618;-67
2023/05/06 13:56:33;;;;;;;3.15;2.42;;;;;;;;;;5092310;28;20210;-65
2023/05/06 13:59:00;;;;;;;5.28;4.13;;;;;;;;;;5091545;28;20711;-64
2023/05/06 14:01:27;;;;;;;2.20;1.65;;;;;;;;;;5092815;28;20210;-66
2023/05/06 14:03:54;;;;;;;3.47;2.65;;;;;;;;;;5091695;28;20237;-61
2023/05/06 14:06:21;;;;;;;2.25;1.75;;;;;;;;;;5092135;28;20230;-65
2023/05/06 14:08:48;;;;;;;2.13;1.30;;;;;;;;;;5092395;28;20253;-66
2023/05/06 14:11:16;;;;;;;2.33;1.52;;;;;;;;;;5092726;28;20231;-68
2023/05/06 14:13:43;;;;;;;1.35;1.00;;;;;;;;;;5091262;28;20218;-65
2023/05/06 14:16:10;;;;;;;3.05;1.30;;;;;;;;;;5092775;28;20223;-67
2023/05/06 14:18:37;;;;;;;1.75;1.20;;;;;;;;;;5090879;28;20210;-64
2023/05/06 14:21:04;;;;;;;2.05;0.98;;;;;;;;;;5092342;28;20233;-62
2023/05/06 14:23:31;;;;;;;8.90;1.42;;;;;;;;;;5091605;28;20219;-66
2023/05/06 14:25:59;;;;;;;3.28;1.88;;;;;;;;;;5091847;28;20222;-61
2023/05/06 14:28:27;;;;;;;6.32;1.52;;;;;;;;;;5091137;28;20297;-65
2023/05/06 14:30:58;;;;;;;3.28;1.38;;;;;;;;;;5090881;28;20222;-65
2023/05/06 14:33:28;;;;;;;2.75;1.73;;;;;;;;;;5090728;28;20265;-61
2023/05/06 14:35:57;;;;;;;1.77;1.23;;;;;;;;;;5092411;28;20218;-66
2023/05/06 14:38:24;;;;;;;2.72;1.45;;;;;;;;;;5092614;28;20230;-69
2023/05/06 14:40:51;;;;;;;5.57;2.47;;;;;;;;;;5092470;28;20242;-65
2023/05/06 14:43:21;;;;;;;4.93;2.22;;;;;;;;;;5092433;28;20218;-69
2023/05/06 14:45:58;;;;;;;1.73;1.05;;;;;;;;;;5089725;28;20251;-59
2023/05/06 14:48:25;;;;;;;1.23;0.80;;;;;;;;;;5089094;28;20249;-64
2023/05/06 14:50:52;;;;;;;2.63;1.48;;;;;;;;;;5091151;28;20291;-57
2023/05/06 14:53:19;;;;;;;2.85;1.65;;;;;;;;;;5089289;28;20326;-58